• Join FlightAware (Why Join?)
  • Login
  • US Flag GB Flag 
20:24 EDT


 

Airport Tracker/Info


-or-


 

Live Flight TrackerFlight Track Log ✈ SKW6335 ✈ 30-Apr-2013 ✈ KLAX - KSAN

Flight Track Log - Related Links

Times and Time Zones

All times are in EDT time to prevent confusion due to time zone crossing. See the SKW6335 flight status page for this flight to view local times or setup timezone preferences in your user account.

Time Position Orientation Groundspeed Altitude Reporting Facility
EDT Latitude Longitude Course Direction KTS MPH feet Rate Location/Type
17:47 33.9333 -118.4333 140° Southeast 145 167 1,700  Level Southern California TRACON
17:48 33.9000 -118.4500 203° Southwest 174 200 3,100 1,200 Climbing Southern California TRACON
17:49 33.8333 -118.4500 180° South 212 244 4,200 1,080 Climbing Southern California TRACON
17:50 33.7424 -118.2032 140° Southeast  Level Estimated
17:50 33.8111 -118.4569 195° South 218 251 4,800  Level Los Angeles Center
17:51 33.6756 -118.1351 139° Southeast  Level Estimated
17:51 33.7483 -118.4542 178° South 229 264 6,000  Level Los Angeles Center
17:52 33.6091 -118.0668 139° Southeast  Level FlightAware Approximate
17:52 33.6964 -118.4111 145° Southeast 233 268 7,600  Level Los Angeles Center
17:53 33.5625 -118.0191 140° Southeast  Level FlightAware Approximate
17:53 33.6614 -118.3494 124° Southeast 232 267 9,000  Level Los Angeles Center
17:54 33.6175 -118.2594 120° Southeast 254 292 9,000  Level Los Angeles Center
17:55 33.5789 -118.1811 121° Southeast 271 312 9,000  Level Los Angeles Center
17:56 33.5361 -118.1097 126° Southeast 268 308 9,000  Level Los Angeles Center
17:57 33.4928 -118.0375 126° Southeast 267 307 9,000  Level Los Angeles Center
17:58 33.4497 -117.9619 124° Southeast 273 314 9,000  Level Los Angeles Center
17:59 33.3997 -117.8739 124° Southeast 268 308 9,000 -120 Level Los Angeles Center
17:59 33.3833 -117.8500 129° Southeast 272 313 8,900  Descending Southern California TRACON
18:00 33.3561 -117.8014 124° Southeast 269 310 9,000  Climbing Los Angeles Center
18:01 33.3142 -117.7278 124° Southeast 268 308 9,000  Level Los Angeles Center
18:02 33.2714 -117.6547 125° Southeast 269 310 9,000  Level Los Angeles Center
18:03 33.2161 -117.5969 139° Southeast 265 305 9,000 -60 Level Los Angeles Center
18:04 33.1333 -117.5333 147° Southeast 266 306 8,900  Descending Southern California TRACON
18:05 33.0828 -117.4861 142° Southeast 265 305 9,000 -180 Climbing Los Angeles Center
18:06 33.0225 -117.4336 144° Southeast 267 307 8,600 -780 Descending Los Angeles Center
18:07 32.9567 -117.3764 144° Southeast 284 327 7,400 -780 Descending Los Angeles Center
18:08 32.8947 -117.3111 138° Southeast 294 338 7,000 -300 Descending Los Angeles Center
18:09 32.8500 -117.2333 124° Southeast 274 315 6,900  Descending Southern California TRACON
18:10 32.7917 -117.1575 132° Southeast 268 308 7,000 -240 Climbing Los Angeles Center
18:11 32.7617 -117.0836 116° Southeast 264 304 6,500 -840 Descending Los Angeles Center
18:12 32.7500 -117.0000 99° East 254 292 5,400 -900 Descending Southern California TRACON
18:13 32.7333 -116.9333 107° East 203 234 4,900 -300 Descending Southern California TRACON
18:14 32.7000 -116.9000 140° Southeast 211 243 4,800 -600 Descending Southern California TRACON
18:16 32.6833 -117.0167 260° West 175 201 3,100 -900 Descending Southern California TRACON
18:17 32.7000 -117.0667 292° West 145 167 2,100 -1,020 Descending Southern California TRACON